createdAt,value
2023-09-10T00:01:06.441Z,10.68
2023-09-10T00:03:41.374Z,11.00
2023-09-10T00:06:21.395Z,11.23
2023-09-10T00:08:50.957Z,10.23
2023-09-10T00:11:21.100Z,10.48
2023-09-10T00:13:54.280Z,10.45
2023-09-10T00:16:24.874Z,10.73
2023-09-10T00:19:02.527Z,11.03
2023-09-10T00:21:32.537Z,10.35
2023-09-10T00:24:00.291Z,11.45
2023-09-10T00:26:37.300Z,11.57
2023-09-10T00:29:04.226Z,11.02
2023-09-10T00:31:41.378Z,11.02
2023-09-10T00:34:08.560Z,12.02
2023-09-10T00:36:48.273Z,11.63
2023-09-10T00:39:16.066Z,11.90
2023-09-10T00:41:54.294Z,11.35
2023-09-10T00:44:29.704Z,11.48
2023-09-10T00:47:10.454Z,11.07
2023-09-10T00:49:50.244Z,12.73
2023-09-10T00:52:31.343Z,11.32
2023-09-10T00:55:09.361Z,11.18
2023-09-10T00:57:46.389Z,11.18
2023-09-10T01:00:14.444Z,11.38
2023-09-10T01:03:06.658Z,11.10
2023-09-10T01:05:34.976Z,11.32
2023-09-10T01:08:04.308Z,10.75
2023-09-10T01:10:47.326Z,10.52
2023-09-10T01:13:30.648Z,10.65
2023-09-10T01:16:10.317Z,9.95
2023-09-10T01:18:46.614Z,10.23
2023-09-10T01:21:51.593Z,10.30
2023-09-10T01:24:29.180Z,11.52
2023-09-10T01:27:06.474Z,11.43
2023-09-10T01:29:35.089Z,11.52
2023-09-10T01:32:13.682Z,12.00
2023-09-10T01:34:47.663Z,10.82
2023-09-10T01:37:28.478Z,10.43
2023-09-10T01:39:59.170Z,11.65
2023-09-10T01:42:26.873Z,11.32
2023-09-10T01:45:03.319Z,12.10
2023-09-10T01:47:30.268Z,11.60
2023-09-10T01:50:04.465Z,11.05
2023-09-10T01:52:34.589Z,12.10
2023-09-10T01:55:07.336Z,12.07
2023-09-10T01:57:37.390Z,10.65
2023-09-10T02:00:13.373Z,11.80
2023-09-10T02:03:00.623Z,11.02
2023-09-10T02:05:34.510Z,12.13
2023-09-10T02:08:04.730Z,12.35
2023-09-10T02:10:41.579Z,12.45
2023-09-10T02:13:12.332Z,11.73
2023-09-10T02:15:49.585Z,12.55
2023-09-10T02:18:16.384Z,10.98
2023-09-10T02:20:45.284Z,12.25
2023-09-10T02:23:22.389Z,12.60
2023-09-10T02:25:53.330Z,12.05
2023-09-10T02:28:32.386Z,12.25
2023-09-10T02:31:08.902Z,12.02
2023-09-10T02:33:43.404Z,11.15
2023-09-10T02:36:13.930Z,11.75
2023-09-10T02:38:41.057Z,11.77
2023-09-10T02:41:21.393Z,12.13
2023-09-10T02:43:52.978Z,12.48
2023-09-10T02:46:29.510Z,12.77
2023-09-10T02:48:59.990Z,12.40
2023-09-10T02:51:35.547Z,12.55
2023-09-10T02:54:05.954Z,12.88
2023-09-10T02:56:36.306Z,12.40
2023-09-10T02:59:13.429Z,12.57
2023-09-10T03:02:00.624Z,13.23
2023-09-10T03:04:37.447Z,13.07
2023-09-10T03:07:04.424Z,13.10
2023-09-10T03:09:34.995Z,13.23
2023-09-10T03:12:54.450Z,13.27
2023-09-10T03:15:22.298Z,12.63
2023-09-10T03:18:02.401Z,12.77
2023-09-10T03:20:29.286Z,13.25
2023-09-10T03:23:06.494Z,12.93
2023-09-10T03:25:41.029Z,11.45
2023-09-10T03:28:14.433Z,11.70
2023-09-10T03:30:41.250Z,11.65
2023-09-10T03:33:26.352Z,12.27
2023-09-10T03:35:57.670Z,13.27
2023-09-10T03:38:38.991Z,12.85
2023-09-10T03:41:12.267Z,12.82
2023-09-10T03:43:50.482Z,11.43
2023-09-10T03:46:20.232Z,13.02
2023-09-10T03:48:47.020Z,12.80
2023-09-10T03:51:23.534Z,12.98
2023-09-10T03:53:57.280Z,13.43
2023-09-10T03:56:33.484Z,12.00
2023-09-10T03:59:10.629Z,12.55
2023-09-10T04:01:48.609Z,13.02
2023-09-10T04:04:25.810Z,11.02
2023-09-10T04:07:02.582Z,12.23
2023-09-10T04:09:30.289Z,12.35
2023-09-10T04:12:02.172Z,13.65
2023-09-10T04:14:38.450Z,12.93
2023-09-10T04:17:06.343Z,12.23
2023-09-10T04:19:43.492Z,11.63
2023-09-10T04:22:15.396Z,12.90
2023-09-10T04:24:52.504Z,11.95
2023-09-10T04:27:22.545Z,13.35
2023-09-10T04:29:55.581Z,13.88
2023-09-10T04:32:28.633Z,14.90
2023-09-10T04:35:07.655Z,14.30
2023-09-10T04:37:35.378Z,13.60
2023-09-10T04:40:14.488Z,13.45
2023-09-10T04:42:47.462Z,16.05
2023-09-10T04:45:14.326Z,23.83
2023-09-10T04:47:53.658Z,29.58
2023-09-10T04:50:20.596Z,21.95
2023-09-10T04:53:00.534Z,18.02
2023-09-10T04:55:27.403Z,26.73
2023-09-10T04:57:57.444Z,30.30
2023-09-10T05:00:33.599Z,30.50
2023-09-10T05:03:06.652Z,28.63
2023-09-10T05:05:40.592Z,29.90
2023-09-10T05:08:10.882Z,32.40
2023-09-10T05:10:45.715Z,31.77
2023-09-10T05:13:16.991Z,32.33
2023-09-10T05:15:56.980Z,34.03
2023-09-10T05:18:27.397Z,35.13
2023-09-10T05:20:55.070Z,34.17
2023-09-10T05:23:34.503Z,32.63
2023-09-10T05:26:04.488Z,33.20
2023-09-10T05:28:38.637Z,32.95
2023-09-10T05:31:06.468Z,34.25
2023-09-10T05:33:41.576Z,31.65
2023-09-10T05:36:11.632Z,33.28
2023-09-10T05:38:44.688Z,34.50
2023-09-10T05:41:14.988Z,33.33
2023-09-10T05:43:41.837Z,35.03
2023-09-10T05:46:15.550Z,34.22
2023-09-10T05:48:42.725Z,36.03
2023-09-10T05:51:20.810Z,35.70
2023-09-10T05:53:51.146Z,36.38
2023-09-10T05:56:18.034Z,36.05
2023-09-10T05:58:51.578Z,38.85
2023-09-10T06:01:18.447Z,35.50
2023-09-10T06:04:02.885Z,35.75
2023-09-10T06:06:29.787Z,33.67
2023-09-10T06:08:59.738Z,37.90
2023-09-10T06:11:33.590Z,35.05
2023-09-10T06:14:03.913Z,34.15
2023-09-10T06:16:40.710Z,34.10
2023-09-10T06:19:11.141Z,33.97
2023-09-10T06:21:51.575Z,33.10
2023-09-10T06:24:28.634Z,32.95
2023-09-10T06:27:01.698Z,31.23
2023-09-10T06:29:28.427Z,31.63
2023-09-10T06:31:55.222Z,31.35
2023-09-10T06:34:28.619Z,32.55
2023-09-10T06:36:55.518Z,31.55
2023-09-10T06:39:28.865Z,31.92
2023-09-10T06:41:55.918Z,32.72
2023-09-10T06:44:22.766Z,33.25
2023-09-10T06:46:59.734Z,32.63
2023-09-10T06:49:30.117Z,31.02
2023-09-10T06:52:04.714Z,31.33
2023-09-10T06:54:31.832Z,31.33
2023-09-10T06:57:02.384Z,31.40
2023-09-10T06:59:38.548Z,29.90
2023-09-10T07:02:14.851Z,29.65
2023-09-10T07:04:57.907Z,27.23
2023-09-10T07:07:24.647Z,26.92
2023-09-10T07:10:01.830Z,26.70
2023-09-10T07:12:39.629Z,26.88
2023-09-10T07:15:13.712Z,26.08
2023-09-10T07:17:44.574Z,26.42
2023-09-10T07:20:12.400Z,26.00
2023-09-10T07:22:51.644Z,24.35
2023-09-10T07:25:18.461Z,24.73
2023-09-10T07:27:54.632Z,25.15
2023-09-10T07:30:21.496Z,25.20
2023-09-10T07:32:54.589Z,24.42
2023-09-10T07:35:27.657Z,24.98
2023-09-10T07:38:01.807Z,25.98
2023-09-10T07:40:34.902Z,26.15
2023-09-10T07:43:14.477Z,25.75
2023-09-10T07:45:45.655Z,25.48
2023-09-10T07:48:20.895Z,26.02
2023-09-10T07:50:58.082Z,24.92
2023-09-10T07:53:31.807Z,23.92
2023-09-10T07:55:59.262Z,23.83
2023-09-10T07:58:38.963Z,22.00
2023-09-10T08:01:08.747Z,22.02
2023-09-10T08:03:49.739Z,19.13
2023-09-10T08:06:23.310Z,21.45
2023-09-10T08:08:56.862Z,18.42
2023-09-10T08:11:23.842Z,18.40
2023-09-10T08:13:56.099Z,17.63
2023-09-10T08:16:29.789Z,18.77
2023-09-10T08:18:56.704Z,17.10
2023-09-10T08:21:30.619Z,18.00
2023-09-10T08:23:57.468Z,17.35
2023-09-10T08:26:31.819Z,17.58
2023-09-10T08:29:02.067Z,17.27
2023-09-10T08:31:39.061Z,17.02
2023-09-10T08:34:09.331Z,18.10
2023-09-10T08:36:45.868Z,16.25
2023-09-10T08:39:16.715Z,15.65
2023-09-10T08:42:02.740Z,16.88
2023-09-10T08:44:33.931Z,18.38
2023-09-10T08:47:13.941Z,15.85
2023-09-10T08:49:45.106Z,15.75
2023-09-10T08:52:12.012Z,16.55
2023-09-10T08:54:45.652Z,15.18
2023-09-10T08:57:13.772Z,15.70
2023-09-10T08:59:52.674Z,16.63
2023-09-10T09:02:25.891Z,16.67
2023-09-10T09:05:05.787Z,17.75
2023-09-10T09:07:53.970Z,17.25
2023-09-10T09:10:34.685Z,16.75
2023-09-10T09:13:06.747Z,15.93
2023-09-10T09:15:40.723Z,16.75
2023-09-10T09:18:15.888Z,16.35
2023-09-10T09:20:53.804Z,18.83
2023-09-10T09:23:32.733Z,16.30
2023-09-10T09:26:12.877Z,15.65
2023-09-10T09:28:43.988Z,16.27
2023-09-10T09:31:12.454Z,15.43
2023-09-10T09:33:56.719Z,16.52
2023-09-10T09:36:28.329Z,16.55
2023-09-10T09:39:02.733Z,16.60
2023-09-10T09:41:38.600Z,18.38
2023-09-10T09:44:16.785Z,17.67
2023-09-10T09:46:52.885Z,16.50
2023-09-10T09:49:34.058Z,17.55
2023-09-10T09:52:06.127Z,17.92
2023-09-10T09:54:46.922Z,18.35
2023-09-10T09:57:14.881Z,19.27
2023-09-10T09:59:46.625Z,17.52
2023-09-10T10:02:24.937Z,16.60
2023-09-10T10:05:01.795Z,17.25
2023-09-10T10:07:51.463Z,18.02
2023-09-10T10:10:20.973Z,16.85
2023-09-10T10:13:00.846Z,18.02
2023-09-10T10:15:32.436Z,17.55
2023-09-10T10:18:11.204Z,18.85
2023-09-10T10:20:50.063Z,17.67
2023-09-10T10:23:27.968Z,18.55
2023-09-10T10:25:59.731Z,17.77
2023-09-10T10:28:27.379Z,17.30
2023-09-10T10:31:06.763Z,17.60
2023-09-10T10:33:36.442Z,16.70
2023-09-10T10:36:30.946Z,17.27
2023-09-10T10:39:03.897Z,17.40
2023-09-10T10:41:54.856Z,16.80
2023-09-10T10:44:35.747Z,16.23
2023-09-10T10:47:21.093Z,16.10
2023-09-10T10:49:55.749Z,15.57
2023-09-10T10:52:40.221Z,17.05
2023-09-10T10:55:11.757Z,16.02
2023-09-10T10:57:54.043Z,18.20
2023-09-10T11:00:25.207Z,17.13
2023-09-10T11:03:26.967Z,16.25
2023-09-10T11:08:43.008Z,17.33
2023-09-10T11:11:45.948Z,19.42
2023-09-10T11:14:19.597Z,17.75
2023-09-10T11:16:53.427Z,19.58
2023-09-10T11:19:52.965Z,20.73
2023-09-10T11:22:29.973Z,19.30
2023-09-10T11:25:13.979Z,19.80
2023-09-10T11:27:44.380Z,19.10
2023-09-10T11:30:27.961Z,19.27
2023-09-10T11:33:30.970Z,19.25
2023-09-10T11:36:09.927Z,17.50
2023-09-10T11:38:36.788Z,18.00
2023-09-10T11:41:07.614Z,17.88
2023-09-10T11:43:44.791Z,18.58
2023-09-10T11:46:15.244Z,18.63
2023-09-10T11:48:52.817Z,18.10
2023-09-10T11:51:23.296Z,18.45
2023-09-10T11:54:00.125Z,19.33
2023-09-10T11:56:29.689Z,17.20
2023-09-10T11:58:56.771Z,17.35
2023-09-10T12:01:33.827Z,17.35
2023-09-10T12:04:11.656Z,18.30
2023-09-10T12:06:45.063Z,17.27
2023-09-10T12:09:11.955Z,18.10
2023-09-10T12:11:44.047Z,17.95
2023-09-10T12:14:23.907Z,19.35
2023-09-10T12:16:56.102Z,19.52
2023-09-10T12:19:33.192Z,18.95
2023-09-10T12:22:10.992Z,19.25
2023-09-10T12:24:52.831Z,19.05
2023-09-10T12:27:19.694Z,16.70
2023-09-10T12:29:56.895Z,17.70
2023-09-10T12:32:27.272Z,17.38
2023-09-10T12:35:04.129Z,16.98
2023-09-10T12:37:30.957Z,16.42
2023-09-10T12:40:01.955Z,16.23
2023-09-10T12:42:35.813Z,15.02
2023-09-10T12:45:06.491Z,16.65
2023-09-10T12:47:44.698Z,16.92
2023-09-10T12:50:13.518Z,15.35
2023-09-10T12:52:51.064Z,14.63
2023-09-10T12:55:22.113Z,15.75
2023-09-10T12:58:15.077Z,14.60
2023-09-10T13:00:59.906Z,14.25
2023-09-10T13:03:44.312Z,15.00
2023-09-10T13:06:15.295Z,13.52
2023-09-10T13:08:42.089Z,14.48
2023-09-10T13:11:17.927Z,12.70
2023-09-10T13:13:48.464Z,13.48
2023-09-10T13:16:26.909Z,13.23
2023-09-10T13:18:57.777Z,11.63
2023-09-10T13:21:35.023Z,13.75
2023-09-10T13:24:06.704Z,13.38
2023-09-10T13:26:33.537Z,14.05
2023-09-10T13:29:09.871Z,13.40
2023-09-10T13:31:36.593Z,13.23
2023-09-10T13:34:15.037Z,13.65
2023-09-10T13:36:42.887Z,12.65
2023-09-10T13:39:09.661Z,14.07
2023-09-10T13:41:46.872Z,14.43
2023-09-10T13:44:13.676Z,13.90
2023-09-10T13:46:51.029Z,14.10
2023-09-10T13:49:18.059Z,13.48
2023-09-10T13:51:49.180Z,15.80
2023-09-10T13:54:25.935Z,15.02
2023-09-10T13:57:00.022Z,16.55
2023-09-10T13:59:31.626Z,14.25
2023-09-10T14:02:12.055Z,12.93
2023-09-10T14:04:45.859Z,15.55
2023-09-10T14:07:22.911Z,16.27
2023-09-10T14:09:56.925Z,16.13
2023-09-10T14:12:34.013Z,15.32
2023-09-10T14:15:00.942Z,16.52
2023-09-10T14:17:31.684Z,16.45
2023-09-10T14:20:09.217Z,15.40
2023-09-10T14:22:43.800Z,15.32
2023-09-10T14:25:23.064Z,15.07
2023-09-10T14:27:52.539Z,15.05
2023-09-10T14:30:30.112Z,17.90
2023-09-10T14:32:57.086Z,16.65
2023-09-10T14:35:24.103Z,18.38
2023-09-10T14:38:00.228Z,17.35
2023-09-10T14:40:31.463Z,16.70
2023-09-10T14:43:12.065Z,18.17
2023-09-10T14:45:40.301Z,17.90
2023-09-10T14:48:08.711Z,16.55
2023-09-10T14:50:43.971Z,13.90
2023-09-10T14:53:14.737Z,12.82
2023-09-10T14:55:52.063Z,12.32
2023-09-10T14:58:18.761Z,11.80
2023-09-10T15:00:45.526Z,11.65
2023-09-10T15:03:19.098Z,11.88
2023-09-10T15:05:51.986Z,10.40
2023-09-10T15:08:18.828Z,10.50
2023-09-10T15:10:51.961Z,10.68
2023-09-10T15:13:18.817Z,13.23
2023-09-10T15:15:52.117Z,10.80
2023-09-10T15:18:22.547Z,12.52
2023-09-10T15:20:56.947Z,11.70
2023-09-10T15:23:28.616Z,11.02
2023-09-10T15:26:04.977Z,11.73
2023-09-10T15:28:35.509Z,10.52
2023-09-10T15:31:13.166Z,10.00
2023-09-10T15:33:40.499Z,9.80
2023-09-10T15:36:11.153Z,9.75
2023-09-10T15:38:43.953Z,9.30
2023-09-10T15:41:10.972Z,9.80
2023-09-10T15:43:44.182Z,10.30
2023-09-10T15:46:10.983Z,9.07
2023-09-10T15:48:47.292Z,9.65
2023-09-10T15:51:14.093Z,8.60
2023-09-10T15:53:44.938Z,9.60
2023-09-10T15:56:20.125Z,8.93
2023-09-10T15:58:47.021Z,8.80
2023-09-10T16:01:21.093Z,8.52
2023-09-10T16:04:08.075Z,8.48
2023-09-10T16:06:42.123Z,9.10
2023-09-10T16:09:09.197Z,8.50
2023-09-10T16:11:43.000Z,8.00
2023-09-10T16:14:09.999Z,9.43
2023-09-10T16:16:47.251Z,8.27
2023-09-10T16:19:14.138Z,7.78
2023-09-10T16:21:41.898Z,8.52
2023-09-10T16:24:15.183Z,8.82
2023-09-10T16:26:42.098Z,8.32
2023-09-10T16:29:08.906Z,8.32
2023-09-10T16:31:42.112Z,9.18
2023-09-10T16:34:19.088Z,8.02
2023-09-10T16:36:52.016Z,8.88
2023-09-10T16:39:18.716Z,9.10
2023-09-10T16:41:53.084Z,7.50
2023-09-10T16:44:24.485Z,8.02
2023-09-10T16:49:24.051Z,7.75
2023-09-10T16:51:53.950Z,8.02
2023-09-10T16:54:27.227Z,7.43
2023-09-10T16:56:53.974Z,8.35
2023-09-10T16:59:20.766Z,8.32
2023-09-10T17:01:54.056Z,7.68
2023-09-10T17:04:41.028Z,6.88
2023-09-10T17:07:15.123Z,7.45
2023-09-10T17:09:41.920Z,7.68
2023-09-10T17:12:18.206Z,7.28
2023-09-10T17:14:45.665Z,7.40
2023-09-10T17:17:19.277Z,7.93
2023-09-10T17:19:46.163Z,8.05
2023-09-10T17:22:19.035Z,7.55
2023-09-10T17:24:56.290Z,8.13
2023-09-10T17:27:23.031Z,7.95
2023-09-10T17:29:58.251Z,7.55
2023-09-10T17:32:25.113Z,7.00
2023-09-10T17:34:51.961Z,7.30
2023-09-10T17:37:30.265Z,6.70
2023-09-10T17:39:57.012Z,6.95
2023-09-10T17:42:23.806Z,7.30
2023-09-10T17:44:59.172Z,6.82
2023-09-10T17:47:30.291Z,7.43
2023-09-10T17:50:07.554Z,7.82
2023-09-10T17:52:36.248Z,6.97
2023-09-10T17:55:12.109Z,7.07
2023-09-10T17:57:38.924Z,7.47
2023-09-10T18:00:14.174Z,7.13
2023-09-10T18:02:44.673Z,7.82
2023-09-10T18:05:24.259Z,7.10
2023-09-10T18:07:51.053Z,7.50
2023-09-10T18:10:18.008Z,7.30
2023-09-10T18:12:51.373Z,9.07
2023-09-10T18:15:18.210Z,7.95
2023-09-10T18:17:46.711Z,7.78
2023-09-10T18:20:20.243Z,8.07
2023-09-10T18:22:46.965Z,7.90
2023-09-10T18:25:20.184Z,7.82
2023-09-10T18:27:46.909Z,7.65
2023-09-10T18:30:20.122Z,8.70
2023-09-10T18:32:46.908Z,9.45
2023-09-10T18:35:14.014Z,8.77
2023-09-10T18:37:48.234Z,8.05
2023-09-10T18:40:15.020Z,8.60
2023-09-10T18:42:52.118Z,9.13
2023-09-10T18:45:19.057Z,9.32
2023-09-10T18:47:54.225Z,8.77
2023-09-10T18:50:21.085Z,8.57
2023-09-10T18:52:54.114Z,8.68
2023-09-10T18:55:27.111Z,9.18
2023-09-10T18:57:53.879Z,9.75
2023-09-10T19:00:27.132Z,9.15
2023-09-10T19:02:54.128Z,10.13
2023-09-10T19:06:17.175Z,10.15
2023-09-10T19:08:43.897Z,9.27
2023-09-10T19:11:17.202Z,10.40
2023-09-10T19:13:43.964Z,11.07
2023-09-10T19:16:10.787Z,10.70
2023-09-10T19:18:44.234Z,10.88
2023-09-10T19:21:11.100Z,9.85
2023-09-10T19:23:38.033Z,10.10
2023-09-10T19:26:11.379Z,11.68
2023-09-10T19:28:38.231Z,10.85
2023-09-10T19:31:21.292Z,11.77
2023-09-10T19:33:48.114Z,12.13
2023-09-10T19:36:16.713Z,12.50
2023-09-10T19:38:50.312Z,12.25
2023-09-10T19:41:17.061Z,12.45
2023-09-10T19:43:50.303Z,13.18
2023-09-10T19:46:17.580Z,14.43
2023-09-10T19:48:44.428Z,13.40
2023-09-10T19:51:18.161Z,14.43
2023-09-10T19:53:45.759Z,15.98
2023-09-10T19:56:25.848Z,16.08
2023-09-10T19:59:14.128Z,17.58
2023-09-10T20:01:49.481Z,17.65
2023-09-10T20:04:23.237Z,18.02
2023-09-10T20:07:07.199Z,17.60
2023-09-10T20:09:33.912Z,18.48
2023-09-10T20:12:00.746Z,18.80
2023-09-10T20:14:34.254Z,19.55
2023-09-10T20:17:02.827Z,19.48
2023-09-10T20:19:36.161Z,18.75
2023-09-10T20:22:03.789Z,20.83
2023-09-10T20:24:37.217Z,19.85
2023-09-10T20:27:04.099Z,20.88
2023-09-10T20:29:37.383Z,20.58
2023-09-10T20:32:04.437Z,21.13
2023-09-10T20:34:31.357Z,19.83
2023-09-10T20:37:04.218Z,20.27
2023-09-10T20:39:31.009Z,21.33
2023-09-10T20:42:04.218Z,19.38
2023-09-10T20:44:31.022Z,19.50
2023-09-10T20:47:04.358Z,19.17
2023-09-10T20:49:31.536Z,19.10
2023-09-10T20:51:58.293Z,19.63
2023-09-10T20:54:31.267Z,16.67
2023-09-10T20:56:58.016Z,17.65
2023-09-10T20:59:31.324Z,17.20
2023-09-10T21:01:58.133Z,19.80
2023-09-10T21:04:31.472Z,18.13
2023-09-10T21:07:05.588Z,17.73
2023-09-10T21:09:39.262Z,15.18
2023-09-10T21:12:06.274Z,18.05
2023-09-10T21:14:48.323Z,17.23
2023-09-10T21:17:21.779Z,19.80
2023-09-10T21:19:55.305Z,17.67
2023-09-10T21:22:22.320Z,17.33
2023-09-10T21:24:49.139Z,16.63
2023-09-10T21:27:22.514Z,15.82
2023-09-10T21:29:49.323Z,15.32
2023-09-10T21:32:16.286Z,14.95
2023-09-10T21:34:49.307Z,14.52
2023-09-10T21:37:16.104Z,14.23
2023-09-10T21:39:50.287Z,14.35
2023-09-10T21:42:18.215Z,13.13
2023-09-10T21:44:52.301Z,13.02
2023-09-10T21:47:19.056Z,13.45
2023-09-10T21:49:52.366Z,14.25
2023-09-10T21:52:19.208Z,13.18
2023-09-10T21:54:45.882Z,13.35
2023-09-10T21:57:19.374Z,13.52
2023-09-10T21:59:46.178Z,14.25
2023-09-10T22:02:19.304Z,14.20
2023-09-10T22:04:46.062Z,13.63
2023-09-10T22:07:26.591Z,14.45
2023-09-10T22:09:55.095Z,12.50
2023-09-10T22:12:35.614Z,12.85
2023-09-10T22:15:06.394Z,13.18
2023-09-10T22:17:33.207Z,12.63
2023-09-10T22:20:06.344Z,12.50
2023-09-10T22:22:36.622Z,11.40
2023-09-10T22:25:10.298Z,12.95
2023-09-10T22:27:37.030Z,13.18
2023-09-10T22:30:10.432Z,11.35
2023-09-10T22:32:37.261Z,10.48
2023-09-10T22:35:04.256Z,10.98
2023-09-10T22:37:37.334Z,10.48
2023-09-10T22:40:04.350Z,12.90
2023-09-10T22:42:37.470Z,11.73
2023-09-10T22:45:04.707Z,12.02
2023-09-10T22:47:31.620Z,12.00
2023-09-10T22:50:05.449Z,12.68
2023-09-10T22:52:32.140Z,13.40
2023-09-10T22:54:58.854Z,12.68
2023-09-10T22:57:32.310Z,12.50
2023-09-10T22:59:59.062Z,12.30
2023-09-10T23:02:32.642Z,12.70
2023-09-10T23:04:59.789Z,13.02
2023-09-10T23:07:39.549Z,12.27
2023-09-10T23:10:21.669Z,12.77
2023-09-10T23:12:59.542Z,12.68
2023-09-10T23:15:26.621Z,12.98
2023-09-10T23:17:57.172Z,12.52
2023-09-10T23:20:30.814Z,13.10
2023-09-10T23:23:01.060Z,13.20
2023-09-10T23:25:28.392Z,12.77
2023-09-10T23:28:01.394Z,13.98
2023-09-10T23:30:28.541Z,13.63
2023-09-10T23:33:03.526Z,15.18
2023-09-10T23:35:30.691Z,15.15
2023-09-10T23:37:57.588Z,15.07
2023-09-10T23:40:31.444Z,13.75
2023-09-10T23:42:58.448Z,15.10
2023-09-10T23:45:31.420Z,14.43
2023-09-10T23:47:58.651Z,14.48
2023-09-10T23:50:32.617Z,14.98
2023-09-10T23:52:59.548Z,15.85
2023-09-10T23:55:33.715Z,15.05
2023-09-10T23:58:00.668Z,14.88
